Time;durP1;ratioP1;P1;durP2;ratioP2;P2;SDS_P1;SDS_P2;PMS_P1;PMS_P2;Temp;Humidity;BMP_temperature;BMP_pressure;BME280_temperature;BME280_humidity;BME280_pressure;Samples;Min_cycle;Max_cycle;Signal;HPM_P1;HPM_P2
2023/09/06 00:00:55;;;;;;;60.27;56.03;;;18.70;93.30;;;;;;5036016;28;20694;-65
2023/09/06 00:03:21;;;;;;;61.10;57.20;;;18.70;93.40;;;;;;5037189;28;20067;-66
2023/09/06 00:05:47;;;;;;;57.10;53.30;;;18.70;93.50;;;;;;5031435;28;20373;-67
2023/09/06 00:08:16;;;;;;;59.50;55.63;;;18.60;93.70;;;;;;5013253;28;20282;-67
2023/09/06 00:10:45;;;;;;;59.60;55.33;;;18.60;93.50;;;;;;5031333;28;20045;-67
2023/09/06 00:13:12;;;;;;;38.37;35.73;;;18.60;93.60;;;;;;5027756;28;20799;-66
2023/09/06 00:15:38;;;;;;;55.30;51.83;;;18.50;93.90;;;;;;5030159;28;20390;-66
2023/09/06 00:18:05;;;;;;;62.17;57.90;;;18.50;94.00;;;;;;5029465;28;21289;-66
2023/09/06 00:20:34;;;;;;;52.33;48.87;;;18.50;94.30;;;;;;5029326;28;20053;-66
2023/09/06 00:23:02;;;;;;;39.97;36.93;;;18.50;94.10;;;;;;5034670;28;20288;-66
2023/09/06 00:25:31;;;;;;;46.57;43.40;;;18.50;94.40;;;;;;5030496;28;20727;-66
2023/09/06 00:27:59;;;;;;;46.97;43.80;;;18.40;94.30;;;;;;5030359;28;20289;-66
2023/09/06 00:30:25;;;;;;;46.33;42.90;;;18.40;94.30;;;;;;5030810;28;20353;-67
2023/09/06 00:32:54;;;;;;;48.67;45.40;;;18.40;94.60;;;;;;5025304;28;20779;-66
2023/09/06 00:35:24;;;;;;;41.50;38.80;;;18.30;94.60;;;;;;5070871;28;20040;-66
2023/09/06 00:37:51;;;;;;;61.60;57.63;;;18.30;94.80;;;;;;5035662;28;20290;-66
2023/09/06 00:40:18;;;;;;;73.57;68.70;;;18.30;94.90;;;;;;5028375;28;20304;-66
2023/09/06 00:43:10;;;;;;;32.80;30.47;;;18.30;94.90;;;;;;5066152;28;20376;-66
2023/09/06 00:45:47;;;;;;;53.50;49.87;;;18.20;95.00;;;;;;5010706;28;20318;-66
2023/09/06 00:48:36;;;;;;;34.73;32.30;;;18.20;94.80;;;;;;5028983;28;20291;-66
2023/09/06 00:51:04;;;;;;;38.40;35.77;;;18.20;94.70;;;;;;5075101;28;20291;-66
2023/09/06 00:53:31;;;;;;;41.83;38.97;;;18.10;94.70;;;;;;5036749;28;20374;-66
2023/09/06 00:55:59;;;;;;;31.87;29.53;;;18.10;94.80;;;;;;5036333;28;20299;-66
2023/09/06 00:58:27;;;;;;;35.63;33.10;;;18.00;94.90;;;;;;5037402;28;20283;-66
2023/09/06 01:00:52;;;;;;;25.23;23.33;;;18.00;95.00;;;;;;5030080;28;20802;-66
2023/09/06 01:03:19;;;;;;;28.37;26.27;;;18.00;95.30;;;;;;5073591;28;20279;-66
2023/09/06 01:06:04;;;;;;;24.17;22.17;;;17.90;95.30;;;;;;5014438;28;20056;-66
2023/09/06 01:08:49;;;;;;;55.72;51.80;;;17.90;95.50;;;;;;5029916;28;20276;-66
2023/09/06 01:11:21;;;;;;;26.80;24.90;;;17.90;95.30;;;;;;5014062;28;20037;-67
2023/09/06 01:13:58;;;;;;;28.90;26.73;;;17.90;95.40;;;;;;5035090;28;20144;-66
2023/09/06 01:16:30;;;;;;;19.73;18.10;;;17.80;95.20;;;;;;5036132;28;20296;-67
2023/09/06 01:18:57;;;;;;;32.93;30.63;;;17.80;95.40;;;;;;5050745;28;20651;-66
2023/09/06 01:21:27;;;;;;;27.03;25.03;;;17.80;95.60;;;;;;5042231;28;20291;-66
2023/09/06 01:23:54;;;;;;;32.23;29.83;;;17.80;95.70;;;;;;5034691;28;20334;-66
2023/09/06 01:26:20;;;;;;;54.87;51.30;;;17.70;95.70;;;;;;5030420;28;20317;-66
2023/09/06 01:28:49;;;;;;;27.97;25.80;;;17.70;95.80;;;;;;5039494;28;20288;-66
2023/09/06 01:31:16;;;;;;;29.77;27.43;;;17.70;95.90;;;;;;5033093;28;20366;-66
2023/09/06 01:33:42;;;;;;;19.73;18.03;;;17.60;95.80;;;;;;5032933;28;20370;-66
2023/09/06 01:36:07;;;;;;;51.93;48.53;;;17.60;96.00;;;;;;5041266;28;20366;-66
2023/09/06 01:38:33;;;;;;;29.00;26.60;;;17.60;95.80;;;;;;5040555;28;20170;-66
2023/09/06 01:40:59;;;;;;;30.03;27.90;;;17.50;95.90;;;;;;5049838;28;20047;-66
2023/09/06 01:43:25;;;;;;;40.33;37.57;;;17.50;96.10;;;;;;5050995;28;20405;-66
2023/09/06 01:45:51;;;;;;;27.77;25.63;;;17.50;96.10;;;;;;5049946;28;20311;-66
2023/09/06 01:48:20;;;;;;;27.07;25.07;;;17.50;96.10;;;;;;5033875;28;20041;-66
2023/09/06 01:50:47;;;;;;;51.27;48.03;;;17.40;96.30;;;;;;5034377;28;20741;-66
2023/09/06 01:53:13;;;;;;;26.17;24.37;;;17.40;96.30;;;;;;5050608;28;20279;-66
2023/09/06 01:55:43;;;;;;;33.73;31.30;;;17.40;96.50;;;;;;5034125;28;20287;-66
2023/09/06 01:58:10;;;;;;;35.47;32.97;;;17.40;96.60;;;;;;5033211;28;20051;-66
2023/09/06 02:00:37;;;;;;;37.23;34.47;;;17.40;96.80;;;;;;5049950;28;20303;-66
2023/09/06 02:03:04;;;;;;;57.10;53.23;;;17.40;97.00;;;;;;5034036;28;20295;-66
2023/09/06 02:05:32;;;;;;;38.17;35.50;;;17.40;97.10;;;;;;5050592;28;20406;-66
2023/09/06 02:07:58;;;;;;;58.60;54.60;;;17.40;97.10;;;;;;5033559;28;20356;-66
2023/09/06 02:10:25;;;;;;;57.63;54.03;;;17.40;97.40;;;;;;5050529;28;20295;-66
2023/09/06 02:12:51;;;;;;;35.20;32.60;;;17.40;97.30;;;;;;5051025;28;20287;-66
2023/09/06 02:15:16;;;;;;;22.97;21.20;;;17.40;97.10;;;;;;5038179;28;20306;-66
2023/09/06 02:17:43;;;;;;;40.63;37.97;;;17.40;97.30;;;;;;5045461;28;20124;-66
2023/09/06 02:20:17;;;;;;;38.10;35.33;;;17.40;97.40;;;;;;5034304;28;20493;-66
2023/09/06 02:22:48;;;;;;;27.40;25.40;;;17.40;97.40;;;;;;5050973;28;20341;-66
2023/09/06 02:25:15;;;;;;;38.83;36.07;;;17.30;97.30;;;;;;5050371;28;20313;-66
2023/09/06 02:27:41;;;;;;;43.20;40.37;;;17.30;97.40;;;;;;5049732;28;20374;-67
2023/09/06 02:30:08;;;;;;;36.33;33.90;;;17.20;97.30;;;;;;5046145;28;20338;-67
2023/09/06 02:32:34;;;;;;;39.07;36.10;;;17.20;97.60;;;;;;5040189;28;20316;-67
2023/09/06 02:35:00;;;;;;;37.43;34.43;;;17.20;97.70;;;;;;5053329;28;20315;-67
2023/09/06 02:37:27;;;;;;;41.57;38.57;;;17.20;97.80;;;;;;5052215;28;20090;-67
2023/09/06 02:39:55;;;;;;;44.70;41.80;;;17.20;98.10;;;;;;5043326;28;20389;-66
2023/09/06 02:42:21;;;;;;;39.70;36.97;;;17.20;98.30;;;;;;5063625;28;20385;-66
2023/09/06 02:44:47;;;;;;;24.63;22.83;;;17.20;98.10;;;;;;5031913;28;20806;-66
2023/09/06 02:47:17;;;;;;;32.27;30.00;;;17.20;97.90;;;;;;5014433;28;20287;-66
2023/09/06 02:49:45;;;;;;;25.13;23.20;;;17.20;97.90;;;;;;5064006;28;20041;-66
2023/09/06 02:52:20;;;;;;;22.70;20.87;;;17.20;97.90;;;;;;5032059;28;20780;-66
2023/09/06 02:54:47;;;;;;;22.33;20.42;;;17.10;97.90;;;;;;5031186;28;20287;-66
2023/09/06 02:57:14;;;;;;;31.03;28.90;;;17.10;98.00;;;;;;5015808;28;20049;-67
2023/09/06 02:59:40;;;;;;;33.93;31.47;;;17.10;97.90;;;;;;5031458;28;20334;-67
2023/09/06 03:02:05;;;;;;;36.40;34.00;;;17.10;98.20;;;;;;5048900;28;20288;-66
2023/09/06 03:04:37;;;;;;;37.73;35.30;;;17.00;98.00;;;;;;5031115;28;20355;-66
2023/09/06 03:07:10;;;;;;;45.17;42.17;;;17.00;97.90;;;;;;5015965;28;20167;-66
2023/09/06 03:09:42;;;;;;;37.97;35.37;;;17.00;98.20;;;;;;5039477;28;20290;-67
2023/09/06 03:12:11;;;;;;;30.77;28.70;;;16.90;98.10;;;;;;5046879;28;20416;-66
2023/09/06 03:14:44;;;;;;;38.77;36.07;;;16.90;98.10;;;;;;5015214;28;20304;-66
2023/09/06 03:17:11;;;;;;;22.90;21.20;;;16.90;97.90;;;;;;5038853;28;20295;-66
2023/09/06 03:19:41;;;;;;;32.53;30.23;;;16.80;98.10;;;;;;5040467;28;20296;-66
2023/09/06 03:22:12;;;;;;;25.33;23.60;;;16.80;97.90;;;;;;5044435;28;20300;-66
2023/09/06 03:24:42;;;;;;;19.13;17.77;;;16.70;97.80;;;;;;5016199;28;20315;-66
2023/09/06 03:27:08;;;;;;;36.40;34.10;;;16.70;97.90;;;;;;5016153;28;20374;-66
2023/09/06 03:29:38;;;;;;;31.40;29.30;;;16.70;97.80;;;;;;5014399;28;20316;-66
2023/09/06 03:32:10;;;;;;;22.90;21.30;;;16.60;97.90;;;;;;5048045;28;20505;-66
2023/09/06 03:34:38;;;;;;;45.10;41.97;;;16.60;98.10;;;;;;5047474;28;20294;-66
2023/09/06 03:37:04;;;;;;;44.10;41.13;;;16.50;98.00;;;;;;5049572;28;20283;-66
2023/09/06 03:39:37;;;;;;;22.07;20.40;;;16.50;98.10;;;;;;5036925;28;20775;-66
2023/09/06 03:42:08;;;;;;;29.03;26.83;;;16.50;98.10;;;;;;5049249;28;20291;-66
2023/09/06 03:44:38;;;;;;;24.70;22.83;;;16.50;97.90;;;;;;5049073;28;20311;-66
2023/09/06 03:47:05;;;;;;;27.50;25.60;;;16.40;98.00;;;;;;5049261;28;20782;-66
2023/09/06 03:49:35;;;;;;;49.17;46.13;;;16.40;97.90;;;;;;5030000;28;20386;-66
2023/09/06 03:52:04;;;;;;;20.00;18.50;;;16.30;97.90;;;;;;5041605;28;20398;-66
2023/09/06 03:54:30;;;;;;;17.37;15.93;;;16.30;97.90;;;;;;5026245;28;20783;-67
2023/09/06 03:56:55;;;;;;;19.20;17.80;;;16.30;97.90;;;;;;5030049;28;20280;-66
2023/09/06 03:59:21;;;;;;;19.00;17.40;;;16.20;98.10;;;;;;5042865;28;20045;-66
2023/09/06 04:01:47;;;;;;;27.47;25.50;;;16.20;98.10;;;;;;5048901;28;20091;-66
2023/09/06 04:04:13;;;;;;;34.77;32.50;;;16.20;98.20;;;;;;5047922;28;20394;-66
2023/09/06 04:06:43;;;;;;;36.37;34.03;;;16.20;98.10;;;;;;5020478;28;20441;-66
2023/09/06 04:09:13;;;;;;;36.50;34.17;;;16.10;98.10;;;;;;5029870;28;20041;-66
2023/09/06 04:11:42;;;;;;;17.03;15.53;;;16.10;98.10;;;;;;5031104;28;20298;-66
2023/09/06 04:14:08;;;;;;;18.73;17.40;;;16.10;97.90;;;;;;5023538;28;20298;-66
2023/09/06 04:16:37;;;;;;;13.87;12.77;;;16.00;98.10;;;;;;5036469;28;20435;-66
2023/09/06 04:19:03;;;;;;;10.87;9.77;;;16.00;98.20;;;;;;5028959;28;20295;-67
2023/09/06 04:21:28;;;;;;;16.47;14.93;;;16.00;98.30;;;;;;5059574;28;20291;-67
2023/09/06 04:23:55;;;;;;;15.23;13.83;;;15.90;98.30;;;;;;5031112;28;20312;-66
2023/09/06 04:26:20;;;;;;;39.80;37.57;;;15.90;98.20;;;;;;5036264;28;20112;-66
2023/09/06 04:28:46;;;;;;;16.47;15.30;;;15.80;98.40;;;;;;5039708;28;20379;-66
2023/09/06 04:31:12;;;;;;;18.60;17.07;;;15.80;98.30;;;;;;5015905;28;20068;-67
2023/09/06 04:33:37;;;;;;;21.00;19.47;;;15.80;98.50;;;;;;5040331;28;20416;-67
2023/09/06 04:36:07;;;;;;;20.20;18.70;;;15.80;98.50;;;;;;5043900;28;20041;-67
2023/09/06 04:38:33;;;;;;;30.73;28.77;;;15.80;98.50;;;;;;5037820;28;20442;-67
2023/09/06 04:40:58;;;;;;;17.77;16.10;;;15.80;98.60;;;;;;5026587;28;20401;-67
2023/09/06 04:43:25;;;;;;;19.97;18.70;;;15.80;98.80;;;;;;5070476;28;20454;-66
2023/09/06 04:45:51;;;;;;;16.47;15.30;;;15.70;98.90;;;;;;5042243;28;20158;-66
2023/09/06 04:48:17;;;;;;;12.50;11.27;;;15.70;98.90;;;;;;5042631;28;20279;-66
2023/09/06 04:50:44;;;;;;;13.00;11.97;;;15.70;98.80;;;;;;5048333;28;20105;-66
2023/09/06 04:53:11;;;;;;;16.23;15.10;;;15.70;98.70;;;;;;5076325;28;20280;-66
2023/09/06 04:55:39;;;;;;;10.50;9.53;;;15.70;98.80;;;;;;5071217;28;20294;-66
2023/09/06 04:58:06;;;;;;;19.63;18.17;;;15.70;98.80;;;;;;5045766;28;20640;-66
2023/09/06 05:00:36;;;;;;;26.87;25.17;;;15.70;98.80;;;;;;5045475;28;20291;-67
2023/09/06 05:03:03;;;;;;;11.97;10.90;;;15.70;99.00;;;;;;5047250;28;20739;-66
2023/09/06 05:05:29;;;;;;;20.60;19.30;;;15.70;99.00;;;;;;5028122;28;20307;-66
2023/09/06 05:07:55;;;;;;;12.97;11.87;;;15.70;99.00;;;;;;5021794;28;20434;-66
2023/09/06 05:10:21;;;;;;;18.13;16.80;;;15.70;98.70;;;;;;5044326;28;20826;-66
2023/09/06 05:12:46;;;;;;;28.87;27.07;;;15.70;98.70;;;;;;5030464;28;20123;-66
2023/09/06 05:15:13;;;;;;;39.33;37.03;;;15.70;98.70;;;;;;5031994;28;20062;-67
2023/09/06 05:17:40;;;;;;;39.73;37.63;;;15.70;98.70;;;;;;5046576;28;20059;-67
2023/09/06 05:20:29;;;;;;;36.73;34.53;;;15.70;98.70;;;;;;5035741;28;20656;-67
2023/09/06 05:22:59;;;;;;;32.80;30.90;;;15.80;98.80;;;;;;5043412;28;20305;-67
2023/09/06 05:25:25;;;;;;;49.10;46.47;;;15.80;99.10;;;;;;5037938;28;20354;-66
2023/09/06 05:27:57;;;;;;;35.67;33.77;;;15.80;99.20;;;;;;5035425;28;20640;-66
2023/09/06 05:30:23;;;;;;;31.07;29.20;;;15.90;99.10;;;;;;5033807;28;20698;-66
2023/09/06 05:32:49;;;;;;;46.60;43.90;;;15.90;99.00;;;;;;5046756;28;20655;-66
2023/09/06 05:35:15;;;;;;;32.73;30.80;;;16.00;99.00;;;;;;5046811;28;20286;-66
2023/09/06 05:37:41;;;;;;;37.67;35.37;;;16.00;99.00;;;;;;5046430;28;20279;-66
2023/09/06 05:40:08;;;;;;;37.17;35.00;;;16.00;98.60;;;;;;5036457;28;20386;-66
2023/09/06 05:42:35;;;;;;;33.97;31.97;;;16.10;98.40;;;;;;5030562;28;20493;-66
2023/09/06 05:45:01;;;;;;;32.77;31.03;;;16.10;98.40;;;;;;5047393;28;20309;-66
2023/09/06 05:47:26;;;;;;;47.83;45.20;;;16.10;98.30;;;;;;5042048;28;20353;-66
2023/09/06 05:49:55;;;;;;;40.83;38.57;;;16.10;98.00;;;;;;5038695;28;20346;-66
2023/09/06 05:52:24;;;;;;;40.97;38.70;;;16.20;97.90;;;;;;5047008;28;20489;-66
2023/09/06 05:54:50;;;;;;;38.00;35.70;;;16.20;98.10;;;;;;5039945;28;20626;-66
2023/09/06 05:57:16;;;;;;;41.80;39.67;;;16.20;98.00;;;;;;5025297;28;20291;-67
2023/09/06 05:59:42;;;;;;;47.83;45.37;;;16.30;98.00;;;;;;5023479;28;20291;-66
2023/09/06 06:02:08;;;;;;;42.93;40.63;;;16.30;97.80;;;;;;5034891;28;20060;-66
2023/09/06 06:04:34;;;;;;;40.30;38.00;;;16.40;97.80;;;;;;5046159;28;20033;-66
2023/09/06 06:07:00;;;;;;;48.97;46.43;;;16.40;97.70;;;;;;5027645;28;20033;-67
2023/09/06 06:09:27;;;;;;;51.10;48.40;;;16.50;97.70;;;;;;5030997;28;20780;-66
2023/09/06 06:11:53;;;;;;;46.13;43.60;;;16.50;97.80;;;;;;5062907;28;20298;-66
2023/09/06 06:14:19;;;;;;;49.80;47.23;;;16.60;97.70;;;;;;5027887;28;20299;-67
2023/09/06 06:16:45;;;;;;;60.13;57.07;;;16.70;97.60;;;;;;5034354;28;20068;-67
2023/09/06 06:19:11;;;;;;;57.57;54.50;;;16.80;97.40;;;;;;5043504;28;20284;-67
2023/09/06 06:21:37;;;;;;;57.30;54.33;;;16.90;97.50;;;;;;5034920;28;20037;-67
2023/09/06 06:24:04;;;;;;;59.53;56.40;;;16.90;97.30;;;;;;5044902;28;20041;-67
2023/09/06 06:26:30;;;;;;;63.57;60.23;;;17.00;97.10;;;;;;5037281;28;20283;-67
2023/09/06 06:28:56;;;;;;;62.80;59.57;;;17.10;97.00;;;;;;5038193;28;20296;-67
2023/09/06 06:31:22;;;;;;;64.97;61.63;;;17.20;97.00;;;;;;5046584;28;20037;-67
2023/09/06 06:33:48;;;;;;;68.43;64.67;;;17.30;96.90;;;;;;5050165;28;20127;-67
2023/09/06 06:36:13;;;;;;;58.37;55.20;;;17.40;96.80;;;;;;5038684;28;20459;-67
2023/09/06 06:38:40;;;;;;;65.03;61.60;;;17.50;96.70;;;;;;5041563;28;20033;-67
2023/09/06 06:41:18;;;;;;;65.43;62.13;;;17.60;96.50;;;;;;5053022;28;20035;-67
2023/09/06 06:43:44;;;;;;;70.33;66.83;;;17.70;96.30;;;;;;5046062;28;20283;-67
2023/09/06 06:46:27;;;;;;;69.23;65.60;;;17.80;96.20;;;;;;5044954;28;20702;-67
2023/09/06 06:48:53;;;;;;;52.63;49.93;;;17.90;96.20;;;;;;5020540;28;20041;-67
2023/09/06 06:51:19;;;;;;;57.50;54.57;;;18.00;96.10;;;;;;5015537;28;20276;-67
2023/09/06 06:53:44;;;;;;;49.37;46.90;;;18.10;95.70;;;;;;5033497;28;20075;-67
2023/09/06 06:56:10;;;;;;;48.87;45.97;;;18.20;95.40;;;;;;5032773;28;20094;-67
2023/09/06 06:58:36;;;;;;;50.53;47.43;;;18.30;95.20;;;;;;5039463;28;20041;-67
2023/09/06 07:01:01;;;;;;;47.20;44.53;;;18.40;95.00;;;;;;5032911;28;20037;-67
2023/09/06 07:03:29;;;;;;;49.30;46.43;;;18.50;94.80;;;;;;5032385;28;20045;-67
2023/09/06 07:05:55;;;;;;;48.77;46.07;;;18.60;94.50;;;;;;5041125;28;20108;-67
2023/09/06 07:08:23;;;;;;;45.03;42.53;;;18.70;94.20;;;;;;5043221;28;20284;-67
2023/09/06 07:10:49;;;;;;;42.37;39.93;;;18.80;93.60;;;;;;5027377;28;20316;-67
2023/09/06 07:13:15;;;;;;;41.30;39.03;;;18.90;93.50;;;;;;5032362;28;20813;-67
2023/09/06 07:15:42;;;;;;;33.23;31.23;;;19.00;92.10;;;;;;5043942;28;20820;-67
2023/09/06 07:18:08;;;;;;;37.00;34.80;;;19.10;91.60;;;;;;5026482;28;20144;-67
2023/09/06 07:20:35;;;;;;;37.73;35.37;;;19.20;91.90;;;;;;5033374;28;20631;-67
2023/09/06 07:23:01;;;;;;;45.23;42.53;;;19.30;91.20;;;;;;5049332;28;20153;-67
2023/09/06 07:25:27;;;;;;;35.87;33.63;;;19.40;90.90;;;;;;5038014;28;20593;-67
2023/09/06 07:27:53;;;;;;;38.10;35.63;;;19.50;90.90;;;;;;5036954;28;20391;-67
2023/09/06 07:30:19;;;;;;;35.20;33.13;;;19.60;91.00;;;;;;5037679;28;20779;-67
2023/09/06 07:32:45;;;;;;;40.80;38.27;;;19.70;90.70;;;;;;5048737;28;20037;-67
2023/09/06 07:35:12;;;;;;;42.23;39.73;;;19.80;90.80;;;;;;5024930;28;20547;-67
2023/09/06 07:37:37;;;;;;;38.57;36.07;;;19.90;89.40;;;;;;5019821;28;20088;-67
2023/09/06 07:40:03;;;;;;;42.37;39.67;;;20.00;89.20;;;;;;5031446;28;20069;-67
2023/09/06 07:42:29;;;;;;;37.00;34.63;;;20.00;88.90;;;;;;5033515;28;20049;-67
2023/09/06 07:44:56;;;;;;;37.00;34.47;;;20.10;88.70;;;;;;5036722;28;20041;-67
2023/09/06 07:47:22;;;;;;;39.23;36.70;;;20.20;87.60;;;;;;5030952;28;20037;-68
2023/09/06 07:49:48;;;;;;;34.43;32.10;;;20.30;87.90;;;;;;5036738;28;20524;-67
2023/09/06 07:52:14;;;;;;;36.93;34.77;;;20.30;87.10;;;;;;5031029;28;20148;-67
2023/09/06 07:54:40;;;;;;;38.10;35.70;;;20.40;87.00;;;;;;5014360;28;20174;-67
2023/09/06 07:57:06;;;;;;;32.80;30.30;;;20.50;86.50;;;;;;5035372;28;20044;-67
2023/09/06 07:59:32;;;;;;;40.37;37.87;;;20.60;86.90;;;;;;5047887;28;20048;-67
2023/09/06 08:01:57;;;;;;;41.37;38.83;;;20.70;86.40;;;;;;5037370;28;20460;-67
2023/09/06 08:04:23;;;;;;;45.87;43.13;;;20.80;85.90;;;;;;5030642;28;20061;-67
2023/09/06 08:06:49;;;;;;;51.97;48.83;;;20.90;84.90;;;;;;5031752;28;20045;-67
2023/09/06 08:09:14;;;;;;;41.93;39.37;;;21.00;84.70;;;;;;5030378;28;20124;-67
2023/09/06 08:11:40;;;;;;;50.77;47.63;;;21.10;84.70;;;;;;5043644;28;20041;-67
2023/09/06 08:14:06;;;;;;;60.10;56.50;;;21.20;85.40;;;;;;5041522;28;20448;-67
2023/09/06 08:16:32;;;;;;;46.50;43.70;;;21.30;85.20;;;;;;5042958;28;20064;-67
2023/09/06 08:18:58;;;;;;;48.30;45.37;;;21.40;85.20;;;;;;5070178;28;20517;-67
2023/09/06 08:21:23;;;;;;;47.90;45.00;;;21.50;84.90;;;;;;5030347;28;20111;-68
2023/09/06 08:23:49;;;;;;;52.93;49.70;;;21.60;84.60;;;;;;5029190;28;20041;-68
2023/09/06 08:26:15;;;;;;;61.03;57.37;;;21.80;84.00;;;;;;5025873;28;20041;-68
2023/09/06 08:28:40;;;;;;;69.27;65.10;;;21.90;83.10;;;;;;5014321;28;20045;-68
2023/09/06 08:31:07;;;;;;;58.47;54.77;;;22.00;83.00;;;;;;5040820;28;20037;-68
2023/09/06 08:33:33;;;;;;;89.13;83.90;;;22.10;83.10;;;;;;5046615;28;20466;-68
2023/09/06 08:35:58;;;;;;;39.50;37.13;;;22.20;81.30;;;;;;5036230;28;20053;-68
2023/09/06 08:38:24;;;;;;;46.90;43.77;;;22.30;81.50;;;;;;5047048;28;20045;-68
2023/09/06 08:40:50;;;;;;;60.03;56.30;;;22.30;80.70;;;;;;5037871;28;20041;-68
2023/09/06 08:43:19;;;;;;;61.13;56.87;;;22.40;79.90;;;;;;5029462;28;20049;-68
2023/09/06 08:45:47;;;;;;;62.13;58.40;;;22.50;80.00;;;;;;5041026;28;20508;-68
2023/09/06 08:48:14;;;;;;;65.43;61.37;;;22.60;80.20;;;;;;5029237;28;20049;-68
2023/09/06 08:50:40;;;;;;;59.83;56.13;;;22.70;79.30;;;;;;5034250;28;20049;-68
2023/09/06 08:53:09;;;;;;;51.27;47.87;;;22.80;79.40;;;;;;5029166;28;20398;-68
2023/09/06 08:55:35;;;;;;;87.30;81.90;;;22.90;79.20;;;;;;5029458;28;20120;-68
2023/09/06 08:58:03;;;;;;;75.03;70.33;;;23.00;78.10;;;;;;5017427;28;20776;-68
2023/09/06 09:00:30;;;;;;;66.80;62.90;;;23.10;78.30;;;;;;5045408;28;20087;-68
2023/09/06 09:02:57;;;;;;;71.27;66.70;;;23.20;78.40;;;;;;5040377;28;20051;-68
2023/09/06 09:05:23;;;;;;;63.60;59.63;;;23.30;77.90;;;;;;5059252;28;20052;-68
2023/09/06 09:08:00;;;;;;;74.07;69.43;;;23.40;77.50;;;;;;5028348;28;20041;-68
2023/09/06 09:10:28;;;;;;;69.00;64.80;;;23.50;75.80;;;;;;5025851;28;21084;-68
2023/09/06 09:12:56;;;;;;;76.33;71.40;;;23.60;76.70;;;;;;5029154;28;20449;-68
2023/09/06 09:15:25;;;;;;;83.13;78.10;;;23.70;75.80;;;;;;5030057;28;20080;-68
2023/09/06 09:17:51;;;;;;;52.00;48.67;;;23.80;75.30;;;;;;5028234;28;20758;-68
2023/09/06 09:20:18;;;;;;;39.53;36.70;;;23.90;74.50;;;;;;5062971;28;20049;-68
2023/09/06 09:22:45;;;;;;;65.53;61.37;;;24.00;74.60;;;;;;5036783;28;20502;-68
2023/09/06 09:25:17;;;;;;;51.60;48.43;;;24.00;74.70;;;;;;5030192;28;20380;-68
2023/09/06 09:27:47;;;;;;;54.00;50.60;;;24.10;75.00;;;;;;5027608;28;20103;-68
2023/09/06 09:30:16;;;;;;;52.30;48.97;;;24.30;74.00;;;;;;5030415;28;20124;-68
2023/09/06 09:32:42;;;;;;;79.63;74.70;;;24.40;74.50;;;;;;5039827;28;20098;-68
2023/09/06 09:35:10;;;;;;;57.87;54.07;;;24.50;73.70;;;;;;5030685;28;20374;-68
2023/09/06 09:37:40;;;;;;;58.90;55.30;;;24.60;73.30;;;;;;5034096;28;20053;-68
2023/09/06 09:40:18;;;;;;;53.83;50.57;;;24.70;73.00;;;;;;5019560;28;20144;-68
2023/09/06 09:42:54;;;;;;;61.83;57.97;;;24.80;72.90;;;;;;5045801;28;20051;-68
2023/09/06 09:45:25;;;;;;;72.70;68.20;;;24.90;71.90;;;;;;5029973;28;20120;-68
2023/09/06 09:47:55;;;;;;;45.20;42.33;;;25.00;71.70;;;;;;5028481;28;20501;-68
2023/09/06 09:50:29;;;;;;;55.43;51.83;;;25.00;71.20;;;;;;5040398;28;20524;-68
2023/09/06 09:52:56;;;;;;;61.15;57.33;;;25.10;71.20;;;;;;5046331;28;20119;-68
2023/09/06 09:55:31;;;;;;;89.23;83.70;;;25.30;70.90;;;;;;5035185;28;20038;-68
2023/09/06 09:57:58;;;;;;;69.33;64.80;;;25.40;69.30;;;;;;5021193;28;20037;-68
2023/09/06 10:00:29;;;;;;;63.20;59.30;;;25.50;68.50;;;;;;5036330;28;20049;-68
2023/09/06 10:02:57;;;;;;;76.53;72.13;;;25.50;68.00;;;;;;5017923;28;20054;-68
2023/09/06 10:05:26;;;;;;;68.83;64.50;;;25.60;68.60;;;;;;5037643;28;20046;-68
2023/09/06 10:07:55;;;;;;;70.70;66.23;;;25.70;67.90;;;;;;5031392;28;20116;-68
2023/09/06 10:10:24;;;;;;;83.73;78.97;;;25.80;68.00;;;;;;5032965;28;20493;-68
2023/09/06 10:12:51;;;;;;;54.47;51.03;;;25.90;67.20;;;;;;5031755;28;20087;-68
2023/09/06 10:15:20;;;;;;;61.63;57.93;;;26.00;67.90;;;;;;5028022;28;20099;-68
2023/09/06 10:17:50;;;;;;;61.70;57.87;;;26.20;66.60;;;;;;5030880;28;20539;-68
2023/09/06 10:20:16;;;;;;;54.67;51.30;;;26.30;67.20;;;;;;5032626;28;20449;-68
2023/09/06 10:22:44;;;;;;;63.23;59.50;;;26.40;67.30;;;;;;5032186;28;20084;-68
2023/09/06 10:25:10;;;;;;;84.20;79.47;;;26.50;66.90;;;;;;5040062;28;20128;-68
2023/09/06 10:27:47;;;;;;;79.90;75.40;;;26.70;65.80;;;;;;5014647;28;20048;-68
2023/09/06 10:30:19;;;;;;;83.50;78.70;;;26.80;64.20;;;;;;5034429;28;20041;-68
2023/09/06 10:32:46;;;;;;;98.30;92.63;;;26.80;64.20;;;;;;5044121;28;20515;-68
2023/09/06 10:35:27;;;;;;;109.50;103.23;;;26.90;65.00;;;;;;5032590;28;20034;-68
2023/09/06 10:38:15;;;;;;;106.37;100.37;;;27.00;63.40;;;;;;5025615;28;20055;-68
2023/09/06 10:40:50;;;;;;;71.43;67.20;;;27.10;63.60;;;;;;5026355;28;20596;-69
2023/09/06 10:43:17;;;;;;;84.77;79.80;;;27.20;64.70;;;;;;5038140;28;20139;-69
2023/09/06 10:46:02;;;;;;;77.73;73.30;;;27.30;63.60;;;;;;5037269;28;20046;-69
2023/09/06 10:48:27;;;;;;;79.85;75.05;;;27.40;63.40;;;;;;5031146;28;20372;-69
2023/09/06 10:51:06;;;;;;;82.07;77.17;;;27.40;62.70;;;;;;5044735;28;20068;-68
2023/09/06 10:53:34;;;;;;;77.53;73.03;;;27.50;61.60;;;;;;5042572;28;20060;-68
2023/09/06 10:56:02;;;;;;;95.13;89.77;;;27.50;62.30;;;;;;5038172;28;20588;-69
2023/09/06 10:58:29;;;;;;;80.77;76.13;;;27.60;62.40;;;;;;5030219;28;20053;-69
2023/09/06 11:01:24;;;;;;;80.97;76.30;;;27.70;62.20;;;;;;5044718;28;20049;-68
2023/09/06 11:03:54;;;;;;;85.40;80.60;;;27.80;61.00;;;;;;5032974;28;20080;-69
2023/09/06 11:06:23;;;;;;;90.13;84.80;;;27.90;62.20;;;;;;5031351;28;20120;-69
2023/09/06 11:08:49;;;;;;;104.37;98.37;;;27.90;62.20;;;;;;5032852;28;20108;-69
2023/09/06 11:11:15;;;;;;;97.23;91.57;;;28.00;62.00;;;;;;5041808;28;20041;-69
2023/09/06 11:13:44;;;;;;;94.90;89.50;;;28.10;61.90;;;;;;5035426;28;20049;-69
2023/09/06 11:16:15;;;;;;;93.53;87.93;;;28.10;61.80;;;;;;5032521;28;20053;-69
2023/09/06 11:18:48;;;;;;;98.10;92.70;;;28.20;60.30;;;;;;5031853;28;20558;-69
2023/09/06 11:21:18;;;;;;;70.70;66.53;;;28.20;61.20;;;;;;5019496;28;20028;-69
2023/09/06 11:23:45;;;;;;;92.67;87.40;;;28.30;60.10;;;;;;5015598;28;20401;-69
2023/09/06 11:26:11;;;;;;;102.53;96.43;;;28.30;60.60;;;;;;5031190;28;20056;-69
2023/09/06 11:28:38;;;;;;;70.77;66.40;;;28.40;59.40;;;;;;5082299;28;20148;-69
2023/09/06 11:31:05;;;;;;;72.63;68.33;;;28.50;58.10;;;;;;5038778;28;20516;-69
2023/09/06 11:33:31;;;;;;;91.00;85.67;;;28.60;58.80;;;;;;5042455;28;20052;-69
2023/09/06 11:35:59;;;;;;;103.23;97.10;;;28.60;57.20;;;;;;5031021;28;20076;-69
2023/09/06 11:38:30;;;;;;;109.90;103.57;;;28.60;57.70;;;;;;5030839;28;20511;-69
2023/09/06 11:40:58;;;;;;;83.87;78.80;;;28.60;58.20;;;;;;5027152;28;20037;-69
2023/09/06 11:43:24;;;;;;;89.77;84.60;;;28.70;57.80;;;;;;5043285;28;20128;-69
2023/09/06 11:45:55;;;;;;;86.00;80.97;;;28.80;57.80;;;;;;5035007;28;20460;-69
2023/09/06 11:48:27;;;;;;;90.27;85.07;;;28.80;57.40;;;;;;5012790;28;20072;-69
2023/09/06 11:51:10;;;;;;;74.37;70.03;;;28.90;57.00;;;;;;5014490;28;20034;-69
2023/09/06 11:53:45;;;;;;;88.00;83.13;;;29.00;57.50;;;;;;5041431;28;20036;-69
2023/09/06 11:56:13;;;;;;;84.30;79.67;;;29.20;56.60;;;;;;5037317;28;20040;-69
2023/09/06 11:58:48;;;;;;;76.27;71.77;;;29.20;55.20;;;;;;5044981;28;20080;-69
2023/09/06 12:01:22;;;;;;;105.20;98.50;;;29.30;54.30;;;;;;5037620;28;20033;-69
2023/09/06 12:03:48;;;;;;;90.00;84.93;;;29.30;53.30;;;;;;5034213;28;20053;-69
2023/09/06 12:06:15;;;;;;;98.33;92.90;;;29.40;55.00;;;;;;5013549;28;20051;-68
2023/09/06 12:08:42;;;;;;;88.73;83.90;;;29.50;55.10;;;;;;5031793;28;20037;-69
2023/09/06 12:11:11;;;;;;;88.33;83.33;;;29.60;54.80;;;;;;5035148;28;20456;-69
2023/09/06 12:13:38;;;;;;;95.83;90.20;;;29.70;53.80;;;;;;5034400;28;20041;-69
2023/09/06 12:16:09;;;;;;;82.73;78.00;;;29.70;52.40;;;;;;5031302;28;20107;-69
2023/09/06 12:18:36;;;;;;;77.20;73.00;;;29.70;52.50;;;;;;5028771;28;20521;-69
2023/09/06 12:21:03;;;;;;;90.20;85.10;;;29.80;52.10;;;;;;5030184;28;20049;-69
2023/09/06 12:23:29;;;;;;;97.43;91.83;;;29.80;52.00;;;;;;5031544;28;20155;-69
2023/09/06 12:25:59;;;;;;;112.53;106.43;;;29.80;52.00;;;;;;5025990;28;20068;-69
2023/09/06 12:28:26;;;;;;;107.30;101.43;;;29.90;53.00;;;;;;5047765;28;20045;-69
2023/09/06 12:30:55;;;;;;;108.33;102.37;;;30.00;53.00;;;;;;5043583;28;20041;-69